createdAt,value
2023-03-05T00:00:22.515Z,30.93
2023-03-05T00:04:22.536Z,28.68
2023-03-05T00:08:22.574Z,29.87
2023-03-05T00:12:22.568Z,28.05
2023-03-05T00:16:22.696Z,30.89
2023-03-05T00:20:22.699Z,30.65
2023-03-05T00:24:22.651Z,32.32
2023-03-05T00:28:22.677Z,28.30
2023-03-05T00:32:22.792Z,27.91
2023-03-05T00:36:22.731Z,29.06
2023-03-05T00:40:22.767Z,26.57
2023-03-05T00:44:22.658Z,29.24
2023-03-05T00:48:23.458Z,27.67
2023-03-05T00:52:22.591Z,28.24
2023-03-05T00:56:22.579Z,28.86
2023-03-05T01:00:22.526Z,28.07
2023-03-05T01:04:22.509Z,29.17
2023-03-05T01:08:22.498Z,27.07
2023-03-05T01:12:22.472Z,27.10
2023-03-05T01:16:22.527Z,28.36
2023-03-05T01:20:22.481Z,27.74
2023-03-05T01:24:22.442Z,27.91
2023-03-05T01:28:22.356Z,27.41
2023-03-05T01:32:22.324Z,25.81
2023-03-05T01:36:22.303Z,27.82
2023-03-05T01:40:22.245Z,28.16
2023-03-05T01:44:22.176Z,28.62
2023-03-05T01:48:22.134Z,26.38
2023-03-05T01:52:22.087Z,27.95
2023-03-05T01:56:22.044Z,27.63
2023-03-05T02:00:21.991Z,28.27
2023-03-05T02:04:21.930Z,28.10
2023-03-05T02:08:21.898Z,28.38
2023-03-05T02:12:21.850Z,25.10
2023-03-05T02:16:21.823Z,25.67
2023-03-05T02:20:21.801Z,26.74
2023-03-05T02:24:21.719Z,26.72
2023-03-05T02:28:21.676Z,26.90
2023-03-05T02:32:21.726Z,27.65
2023-03-05T02:36:21.620Z,26.35
2023-03-05T02:40:21.631Z,25.00
2023-03-05T02:44:21.561Z,26.93
2023-03-05T02:48:21.514Z,26.64
2023-03-05T02:52:21.453Z,27.02
2023-03-05T02:56:21.430Z,26.30
2023-03-05T03:00:21.390Z,28.38
2023-03-05T03:04:21.388Z,26.91
2023-03-05T03:08:21.316Z,27.16
2023-03-05T03:12:21.302Z,27.45
2023-03-05T03:16:21.284Z,27.57
2023-03-05T03:20:21.250Z,25.38
2023-03-05T03:24:21.214Z,25.54
2023-03-05T03:28:21.186Z,28.15
2023-03-05T03:32:21.188Z,26.58
2023-03-05T03:36:21.140Z,25.89
2023-03-05T03:40:21.122Z,26.67
2023-03-05T03:44:21.085Z,27.09
2023-03-05T03:48:21.065Z,26.56
2023-03-05T03:52:21.050Z,26.62
2023-03-05T03:56:21.021Z,26.60
2023-03-05T04:00:21.010Z,25.92
2023-03-05T04:04:21.007Z,27.29
2023-03-05T04:08:20.939Z,25.34
2023-03-05T04:12:20.913Z,26.49
2023-03-05T04:16:20.941Z,27.37
2023-03-05T04:20:20.925Z,27.76
2023-03-05T04:24:20.939Z,27.44
2023-03-05T04:28:20.891Z,26.00
2023-03-05T04:32:20.904Z,26.76
2023-03-05T04:36:20.868Z,25.75
2023-03-05T04:40:20.868Z,26.35
2023-03-05T04:44:20.857Z,27.40
2023-03-05T04:48:20.831Z,26.14
2023-03-05T04:52:20.884Z,26.53
2023-03-05T04:56:20.842Z,26.12
2023-03-05T05:00:20.836Z,27.36
2023-03-05T05:04:20.863Z,26.94
2023-03-05T05:08:20.848Z,27.95
2023-03-05T05:12:20.866Z,26.69
2023-03-05T05:16:20.856Z,25.49
2023-03-05T05:20:20.856Z,26.98
2023-03-05T05:24:20.852Z,26.75
2023-03-05T05:28:20.831Z,25.57
2023-03-05T05:32:20.908Z,25.00
2023-03-05T05:36:20.904Z,25.51
2023-03-05T05:40:20.912Z,28.29
2023-03-05T05:44:20.884Z,26.53
2023-03-05T05:48:20.921Z,27.01
2023-03-05T05:52:20.909Z,26.76
2023-03-05T05:56:20.912Z,26.10
2023-03-05T06:00:20.935Z,27.03
2023-03-05T06:04:20.975Z,27.48
2023-03-05T06:08:20.950Z,27.31
2023-03-05T06:12:20.984Z,27.73
2023-03-05T06:16:21.031Z,26.61
2023-03-05T06:20:20.959Z,26.64
2023-03-05T06:24:20.941Z,27.15
2023-03-05T06:28:20.915Z,26.53
2023-03-05T06:32:20.935Z,27.51
2023-03-05T06:36:20.878Z,26.72
2023-03-05T06:40:20.845Z,26.74
2023-03-05T06:44:20.822Z,26.28
2023-03-05T06:48:20.764Z,26.39
2023-03-05T06:52:20.716Z,28.71
2023-03-05T06:56:20.696Z,27.55
2023-03-05T07:00:20.636Z,26.34
2023-03-05T07:04:20.610Z,28.28
2023-03-05T07:08:20.555Z,27.22
2023-03-05T07:12:20.552Z,26.56
2023-03-05T07:16:20.567Z,26.47
2023-03-05T07:20:20.566Z,27.45
2023-03-05T07:24:20.483Z,28.62
2023-03-05T07:28:20.436Z,28.67
2023-03-05T07:32:20.484Z,28.63
2023-03-05T07:36:20.393Z,29.39
2023-03-05T07:40:20.348Z,30.02
2023-03-05T07:44:20.317Z,33.51
2023-03-05T07:48:20.245Z,36.10
2023-03-05T07:52:20.179Z,37.04
2023-03-05T07:56:20.121Z,38.46
2023-03-05T08:00:20.151Z,39.51
2023-03-05T08:04:20.252Z,37.45
2023-03-05T08:08:19.948Z,37.11
2023-03-05T08:12:19.863Z,44.07
2023-03-05T08:16:19.979Z,53.55
2023-03-05T08:20:19.957Z,43.18
2023-03-05T08:24:19.764Z,38.23
2023-03-05T08:28:19.695Z,43.40
2023-03-05T08:32:19.668Z,60.00
2023-03-05T08:36:19.456Z,73.18
2023-03-05T08:40:19.293Z,57.56
2023-03-05T08:44:19.226Z,58.88
2023-03-05T08:48:19.034Z,73.36
2023-03-05T08:52:19.037Z,73.37
2023-03-05T08:56:18.911Z,49.81
2023-03-05T09:00:19.008Z,36.41
2023-03-05T09:04:19.145Z,46.47
2023-03-05T09:08:18.918Z,43.89
2023-03-05T09:12:18.764Z,40.72
2023-03-05T09:16:18.642Z,30.64
2023-03-05T09:20:18.489Z,27.95
2023-03-05T09:24:44.163Z,25.00
2023-03-05T09:28:44.127Z,25.00
2023-03-05T09:32:44.112Z,28.57
2023-03-05T09:36:43.989Z,28.80
2023-03-05T09:40:43.979Z,25.55
2023-03-05T09:44:43.947Z,28.43
2023-03-05T09:48:43.918Z,28.68
2023-03-05T09:52:43.863Z,28.90
2023-03-05T09:56:43.858Z,29.07
2023-03-05T10:00:43.815Z,34.24
2023-03-05T10:04:43.768Z,32.26
2023-03-05T10:08:43.716Z,29.98
2023-03-05T10:12:43.705Z,29.66
2023-03-05T10:16:43.845Z,32.22
2023-03-05T10:20:43.878Z,30.92
2023-03-05T10:24:43.894Z,32.48
2023-03-05T10:28:43.996Z,30.92
2023-03-05T10:32:44.042Z,34.73
2023-03-05T10:36:44.067Z,31.17
2023-03-05T10:40:44.075Z,31.99
2023-03-05T10:44:44.100Z,31.05
2023-03-05T10:48:44.081Z,28.16
2023-03-05T10:52:44.066Z,31.95
2023-03-05T10:56:44.030Z,32.76
2023-03-05T11:00:43.998Z,32.75
2023-03-05T11:04:43.954Z,30.75
2023-03-05T11:08:43.915Z,32.48
2023-03-05T11:12:43.800Z,33.76
2023-03-05T11:16:43.717Z,34.14
2023-03-05T11:20:43.644Z,31.61
2023-03-05T11:24:43.573Z,32.54
2023-03-05T11:28:43.525Z,29.70
2023-03-05T11:32:43.414Z,31.32
2023-03-05T11:36:43.391Z,30.11
2023-03-05T11:40:43.313Z,29.58
2023-03-05T11:44:43.257Z,32.83
2023-03-05T11:48:43.171Z,30.21
2023-03-05T11:52:43.063Z,30.58
2023-03-05T11:56:43.110Z,31.63
2023-03-05T12:00:43.225Z,31.29
2023-03-05T12:04:43.316Z,30.96
2023-03-05T12:08:43.449Z,33.71
2023-03-05T12:12:43.668Z,32.24
2023-03-05T12:16:43.907Z,32.08
2023-03-05T12:20:44.391Z,34.85
2023-03-05T12:24:43.759Z,31.15
2023-03-05T12:28:44.345Z,31.33
2023-03-05T12:32:43.882Z,33.45
2023-03-05T12:36:43.804Z,32.39
2023-03-05T12:40:43.703Z,35.74
2023-03-05T12:44:43.664Z,32.17
2023-03-05T12:48:43.652Z,33.94
2023-03-05T12:52:43.524Z,32.84
2023-03-05T12:56:43.483Z,32.68
2023-03-05T13:00:43.418Z,33.27
2023-03-05T13:04:43.320Z,33.35
2023-03-05T13:08:43.271Z,33.98
2023-03-05T13:12:43.178Z,32.59
2023-03-05T13:16:43.356Z,33.43
2023-03-05T13:20:43.286Z,29.32
2023-03-05T13:24:43.196Z,34.45
2023-03-05T13:28:43.082Z,32.11
2023-03-05T13:32:43.105Z,32.83
2023-03-05T13:36:42.922Z,32.83
2023-03-05T13:40:42.824Z,31.88
2023-03-05T13:44:42.750Z,32.79
2023-03-05T13:48:42.676Z,30.87
2023-03-05T13:52:42.564Z,31.61
2023-03-05T13:56:42.477Z,29.50
2023-03-05T14:00:42.409Z,28.82
2023-03-05T14:04:42.311Z,30.22
2023-03-05T14:08:42.208Z,31.04
2023-03-05T14:12:42.112Z,29.33
2023-03-05T14:16:42.032Z,28.44
2023-03-05T14:20:41.986Z,30.07
2023-03-05T14:24:41.860Z,29.89
2023-03-05T14:28:41.803Z,28.07
2023-03-05T14:32:41.847Z,31.82
2023-03-05T14:36:41.701Z,29.42
2023-03-05T14:40:41.582Z,28.75
2023-03-05T14:44:41.533Z,29.30
2023-03-05T14:48:41.489Z,28.02
2023-03-05T14:52:41.345Z,27.65
2023-03-05T14:56:41.281Z,26.90
2023-03-05T15:00:41.191Z,27.01
2023-03-05T15:04:41.121Z,27.54
2023-03-05T15:08:41.141Z,29.77
2023-03-05T15:12:40.918Z,28.44
2023-03-05T15:16:40.859Z,26.04
2023-03-05T15:20:40.791Z,25.00
2023-03-05T15:24:40.714Z,26.46
2023-03-05T15:28:40.674Z,25.99
2023-03-05T15:32:40.683Z,28.06
2023-03-05T15:36:40.544Z,26.56
2023-03-05T15:40:40.517Z,28.86
2023-03-05T15:44:40.423Z,26.20
2023-03-05T15:48:40.896Z,29.59
2023-03-05T15:52:40.307Z,26.83
2023-03-05T15:56:40.249Z,27.17
2023-03-05T16:00:40.196Z,27.92
2023-03-05T16:04:40.231Z,29.34
2023-03-05T16:08:40.227Z,29.68
2023-03-05T16:12:40.177Z,26.39
2023-03-05T16:16:40.233Z,26.45
2023-03-05T16:20:40.180Z,27.68
2023-03-05T16:24:40.192Z,28.30
2023-03-05T16:28:40.229Z,29.74
2023-03-05T16:32:40.298Z,31.40
2023-03-05T16:36:40.279Z,29.51
2023-03-05T16:41:06.185Z,30.62
2023-03-05T16:44:41.324Z,30.85
2023-03-05T16:48:40.258Z,28.97
2023-03-05T16:52:40.209Z,28.03
2023-03-05T16:56:40.127Z,28.78
2023-03-05T17:00:40.156Z,27.55
2023-03-05T17:04:40.144Z,28.78
2023-03-05T17:08:40.211Z,29.81
2023-03-05T17:12:40.330Z,28.74
2023-03-05T17:16:40.472Z,29.38
2023-03-05T17:20:40.530Z,27.81
2023-03-05T17:24:40.678Z,29.55
2023-03-05T17:28:40.728Z,27.87
2023-03-05T17:32:40.891Z,31.96
2023-03-05T17:36:40.972Z,28.64
2023-03-05T17:40:41.083Z,27.04
2023-03-05T17:44:41.179Z,28.22
2023-03-05T17:48:41.302Z,30.13
2023-03-05T17:52:41.460Z,27.64
2023-03-05T17:56:41.579Z,28.71
2023-03-05T18:00:41.716Z,31.02
2023-03-05T18:04:41.896Z,30.06
2023-03-05T18:08:42.006Z,30.27
2023-03-05T18:12:42.177Z,26.08
2023-03-05T18:16:42.388Z,25.00
2023-03-05T18:20:42.511Z,27.05
2023-03-05T18:24:42.667Z,29.35
2023-03-05T18:28:42.858Z,28.09
2023-03-05T18:32:43.060Z,29.12
2023-03-05T18:36:43.258Z,30.85
2023-03-05T18:40:43.223Z,29.37
2023-03-05T18:44:43.183Z,28.10
2023-03-05T18:48:43.184Z,30.79
2023-03-05T18:52:43.140Z,31.12
2023-03-05T18:56:43.136Z,30.70
2023-03-05T19:00:43.107Z,33.13
2023-03-05T19:04:43.114Z,27.30
2023-03-05T19:08:43.071Z,31.89
2023-03-05T19:12:43.007Z,31.73
2023-03-05T19:16:42.986Z,32.23
2023-03-05T19:20:43.042Z,32.99
2023-03-05T19:24:43.240Z,34.93
2023-03-05T19:28:43.454Z,31.28
2023-03-05T19:32:43.661Z,31.86
2023-03-05T19:36:43.805Z,33.33
2023-03-05T19:40:43.914Z,34.22
2023-03-05T19:44:44.023Z,33.25
2023-03-05T19:48:44.155Z,36.64
2023-03-05T19:52:44.355Z,35.50
2023-03-05T19:56:44.562Z,30.43
2023-03-05T20:00:44.751Z,37.22
2023-03-05T20:04:44.811Z,32.87
2023-03-05T20:08:44.893Z,35.44
2023-03-05T20:12:44.976Z,31.45
2023-03-05T20:16:45.037Z,35.82
2023-03-05T20:20:45.058Z,31.40
2023-03-05T20:24:45.070Z,31.44
2023-03-05T20:28:45.022Z,32.38
2023-03-05T20:32:45.055Z,31.98
2023-03-05T20:36:45.109Z,33.37
2023-03-05T20:40:45.103Z,33.06
2023-03-05T20:44:45.123Z,29.36
2023-03-05T20:48:45.118Z,34.64
2023-03-05T20:52:45.117Z,31.24
2023-03-05T20:56:45.628Z,30.57
2023-03-05T21:00:45.184Z,30.16
2023-03-05T21:04:45.191Z,32.39
2023-03-05T21:08:45.207Z,30.39
2023-03-05T21:12:45.640Z,33.54
2023-03-05T21:16:45.328Z,29.67
2023-03-05T21:20:45.297Z,29.56
2023-03-05T21:24:45.326Z,29.89
2023-03-05T21:28:45.386Z,29.15
2023-03-05T21:32:45.422Z,28.26
2023-03-05T21:36:45.443Z,28.70
2023-03-05T21:40:45.551Z,30.75
2023-03-05T21:44:45.527Z,31.57
2023-03-05T21:48:45.588Z,29.48
2023-03-05T21:52:45.653Z,26.67
2023-03-05T21:56:45.672Z,27.90
2023-03-05T22:00:45.776Z,31.75
2023-03-05T22:04:45.749Z,31.40
2023-03-05T22:08:45.812Z,29.41
2023-03-05T22:12:45.834Z,29.33
2023-03-05T22:16:46.092Z,28.97
2023-03-05T22:20:45.964Z,27.21
2023-03-05T22:24:46.043Z,33.76
2023-03-05T22:28:46.109Z,29.99
2023-03-05T22:32:47.156Z,29.81
2023-03-05T22:36:46.258Z,27.78
2023-03-05T22:40:46.308Z,30.58
2023-03-05T22:44:46.329Z,33.43
2023-03-05T22:48:46.411Z,29.87
2023-03-05T22:52:46.518Z,29.82
2023-03-05T22:56:46.550Z,30.50
2023-03-05T23:00:46.674Z,30.66
2023-03-05T23:04:46.718Z,30.27
2023-03-05T23:08:46.782Z,28.95
2023-03-05T23:12:46.900Z,29.79
2023-03-05T23:16:46.986Z,30.76
2023-03-05T23:20:47.086Z,29.06
2023-03-05T23:24:47.180Z,30.72
2023-03-05T23:28:47.292Z,29.35
2023-03-05T23:32:47.367Z,31.15
2023-03-05T23:36:47.487Z,31.85
2023-03-05T23:40:47.549Z,29.57
2023-03-05T23:44:47.632Z,29.62
2023-03-05T23:48:47.736Z,30.89
2023-03-05T23:52:47.845Z,29.94
2023-03-05T23:56:48.001Z,26.91
